Reevesville, SC

2:52 AM EST on March 04, 2015 (GMT -0500)
Chubb Bay | Change Station
CLOSE
Current Station
Personal Weather Station
Location: Saint George, SC
Elevation: 108 ft
Nearby Weather Stations
Active Advisory: Flood Warning, Dense Fog Advisory

Elev 108 ft 33.19 °N, 80.57 °W | Updated 3 seconds ago

Fog
Fog
48.6 °F
Feels Like 49 °F
N
0.0
Wind Variable Wind from East
Gusts 0.0 mph

Today
High -- | Low -- °F
--% Chance of Precip.
Yesterday
High -- | Low -- °F
Precip. -- in
6:47 AM 6:21 PM
Waxing Gibbous, 98% visible
Pressure 30.10 in
Visibility 0.2 miles
Clouds Overcast 200 ft
Windchill 49 °F
Dew Point 48 °F
Humidity 96%
Rainfall 0.00 in
Snow Depth Not available.
UV 0.0 out of 12
Pollen 4.60 out of 12
Air Quality Not available.
Flu Activity Not available.
METAR KRBW 040735Z AUTO 11003KT 1/4SM FG OVC002 12/12 A3010 RMK AO2

More Conditions Fewer Conditions

Pressure 30.10 in
Visibility 0.2 miles
Clouds Overcast 200 ft
Windchill 49 °F
Dew Point 48 °F
Humidity 96%
Rainfall 0.00 in
Snow Depth Not available.
UV 0.0 out of 12
Pollen 4.60 out of 12
Air Quality Not available.
Flu Activity Not available.
METAR KRBW 040735Z AUTO 11003KT 1/4SM FG OVC002 12/12 A3010 RMK AO2

More Conditions Fewer Conditions

10-Day Weather Forecast

Almanac

Astronomy

Mar. 04, 2015 Rise Set
Actual Time
Civil Twilight
Nautical Twilight
Astronomical Twilight
Moon
Length of Visible Light
Length of Day
Tomorrow will be .
, % of the Moon is Illuminated

Today's Extremes

State Highs State Lows

Community

WunderPhotos

Upload Photos

1,802,402 photos uploaded!

WunderBlogs® & News

Nearby

Air Quality

  Air Quality AQ Index Pollutant
Not available.

Snow Depth

Station Depth Elevation

Earthquake Activity

City Distance Mag. Time & Date
Minimum magnitude displayed is 2.5.

Coastal Water Temperatures

Place Temperature

Nearby Weather Stations

Flood Warning
Statement as of 9:44 PM EST on March 03, 2015

The Flood Warning continues for
the edisto river near Givhans Ferry.
* At 9 PM Tuesday the stage was 11.2 feet.
* Flood stage is 10.0 feet.
* Minor flooding is occurring.
* Forecast, the river will rise to near 11.2 feet by early Wednesday
morning then begin a slow fall.
* At 11.0 feet, Weeks Landing in Canadys is no longer accessible.


Lat... Lon 3303 8055 3310 8053 3308 8036 3290 8037
          3290 8045 3302 8044




Dense Fog Advisory
Statement as of 1:55 AM EST on March 04, 2015

... Dense fog advisory now in effect until noon EST today...

* visibilities... one quarter mile or less at times as sea fog
moves inland from off the Atlantic.

* Impacts... low visibility will make travel difficult.

Precautionary/preparedness actions...

Be prepared for increased travel time. If driving... slow down...
use low beam headlights... and leave plenty of distance ahead of
you in case a sudden stop is needed.